Time,TemperatureF,DewpointF,PressureIn,WindDirection,WindDirectionDegrees,WindSpeedMPH,WindSpeedGustMPH,Humidity,HourlyPrecipIn,Conditions,Clouds,dailyrainin,SoftwareType,DateUTC
2013-08-29 00:12:00,71.3,69.0,29.99,ENE,68,0.0,0.0,91,0.00,,,0.00,weatherlink.com 1.10,2013-08-29 05:12:00,
2013-08-29 00:27:00,70.7,68.0,29.99,ENE,68,0.0,0.0,92,0.00,,,0.00,weatherlink.com 1.10,2013-08-29 05:27:00,
2013-08-29 00:42:00,70.3,68.0,30.00,ENE,68,0.0,0.0,93,0.00,,,0.00,weatherlink.com 1.10,2013-08-29 05:42:00,
2013-08-29 00:57:00,69.9,68.0,30.00,ENE,68,0.0,0.0,94,0.00,,,0.00,weatherlink.com 1.10,2013-08-29 05:57:00,
2013-08-29 01:12:00,70.1,68.0,30.00,ENE,68,0.0,0.0,94,0.00,,,0.00,weatherlink.com 1.10,2013-08-29 06:12:00,
2013-08-29 01:27:00,70.3,69.0,30.00,ENE,68,0.0,1.0,95,0.00,,,0.00,weatherlink.com 1.10,2013-08-29 06:27:00,
2013-08-29 01:42:00,70.6,69.0,29.99,East,97,0.0,0.0,95,0.00,,,0.00,weatherlink.com 1.10,2013-08-29 06:42:00,
2013-08-29 01:57:00,70.8,69.0,29.99,NNE,29,0.0,0.0,95,0.00,,,0.00,weatherlink.com 1.10,2013-08-29 06:57:00,
2013-08-29 02:12:00,71.1,70.0,30.00,NNE,29,0.0,0.0,95,0.00,,,0.00,weatherlink.com 1.10,2013-08-29 07:12:00,
2013-08-29 02:27:00,71.3,70.0,29.99,East,81,0.0,0.0,94,0.00,,,0.00,weatherlink.com 1.10,2013-08-29 07:27:00,
2013-08-29 02:42:00,71.5,70.0,29.99,East,82,0.0,0.0,95,0.00,,,0.00,weatherlink.com 1.10,2013-08-29 07:42:00,
2013-08-29 02:57:00,72.2,71.0,29.99,East,94,0.0,1.0,95,0.00,,,0.00,weatherlink.com 1.10,2013-08-29 07:57:00,
2013-08-29 03:12:00,72.5,71.0,29.99,ENE,74,0.0,0.0,94,0.00,,,0.00,weatherlink.com 1.10,2013-08-29 08:12:00,
2013-08-29 03:27:00,72.6,71.0,29.99,East,98,0.0,0.0,94,0.00,,,0.00,weatherlink.com 1.10,2013-08-29 08:27:00,
2013-08-29 03:42:00,72.8,71.0,29.99,East,91,0.0,2.0,94,0.00,,,0.00,weatherlink.com 1.10,2013-08-29 08:42:00,
2013-08-29 03:57:00,73.2,71.0,29.99,East,96,0.0,3.0,94,0.00,,,0.00,weatherlink.com 1.10,2013-08-29 08:57:00,
2013-08-29 04:12:00,73.2,71.0,29.98,SE,141,0.0,1.0,94,0.00,,,0.00,weatherlink.com 1.10,2013-08-29 09:12:00,
2013-08-29 04:27:00,73.4,72.0,29.97,ENE,77,0.0,3.0,94,0.00,,,0.00,weatherlink.com 1.10,2013-08-29 09:27:00,
2013-08-29 04:42:00,73.5,72.0,29.97,ENE,62,0.0,-999.0,94,-99.99,,,0.00,weatherlink.com 1.10,2013-08-29 09:42:00,
2013-08-29 04:57:00,73.7,72.0,29.97,ENE,72,0.0,3.0,94,0.00,,,0.00,weatherlink.com 1.10,2013-08-29 09:57:00,
2013-08-29 05:12:00,74.0,72.0,29.96,East,91,0.0,3.0,94,0.00,,,0.00,weatherlink.com 1.10,2013-08-29 10:12:00,
2013-08-29 05:27:00,74.2,72.0,29.97,ESE,113,1.0,2.0,94,0.00,,,0.00,weatherlink.com 1.10,2013-08-29 10:27:00,
2013-08-29 05:42:00,74.3,73.0,29.97,ESE,113,0.0,4.0,95,0.00,,,0.00,weatherlink.com 1.10,2013-08-29 10:42:00,
2013-08-29 05:57:00,74.3,73.0,29.98,SSE,150,0.0,6.0,96,0.00,,,0.00,weatherlink.com 1.10,2013-08-29 10:57:00,
2013-08-29 06:12:00,74.4,73.0,29.97,ENE,63,2.0,3.0,96,0.00,,,0.00,weatherlink.com 1.10,2013-08-29 11:12:00,
2013-08-29 06:27:00,74.2,73.0,29.98,ESE,105,0.0,3.0,96,0.00,,,0.00,weatherlink.com 1.10,2013-08-29 11:27:00,
2013-08-29 06:42:00,74.0,73.0,29.98,ESE,113,0.0,0.0,96,0.00,,,0.00,weatherlink.com 1.10,2013-08-29 11:42:00,
2013-08-29 06:57:00,73.9,73.0,29.97,ESE,117,0.0,42.0,97,0.00,,,0.00,weatherlink.com 1.10,2013-08-29 11:57:00,
2013-08-29 07:12:00,73.8,73.0,29.96,SE,125,3.0,3.0,97,0.00,,,0.00,weatherlink.com 1.10,2013-08-29 12:12:00,
2013-08-29 07:27:00,73.7,73.0,29.96,SE,141,2.0,3.0,97,0.00,,,0.00,weatherlink.com 1.10,2013-08-29 12:27:00,
2013-08-29 07:42:00,73.9,73.0,29.96,ESE,103,2.0,3.0,97,0.00,,,0.00,weatherlink.com 1.10,2013-08-29 12:42:00,
2013-08-29 07:57:00,75.5,74.0,29.97,SSW,193,0.0,3.0,96,0.00,,,0.00,weatherlink.com 1.10,2013-08-29 12:57:00,
2013-08-29 08:13:00,76.8,74.0,29.96,South,191,0.0,5.0,91,0.00,,,0.00,weatherlink.com 1.10,2013-08-29 13:13:00,
2013-08-29 08:28:00,78.4,75.0,29.96,SE,129,6.0,6.0,88,0.00,,,0.00,weatherlink.com 1.10,2013-08-29 13:28:00,
2013-08-29 08:43:00,79.5,76.0,29.96,SE,132,3.0,5.0,88,0.00,,,0.00,weatherlink.com 1.10,2013-08-29 13:43:00,
2013-08-29 08:58:00,80.1,76.0,29.96,South,172,1.0,7.0,87,0.00,,,0.00,weatherlink.com 1.10,2013-08-29 13:58:00,
2013-08-29 09:13:00,79.7,76.0,29.96,SW,218,2.0,8.0,89,0.00,,,0.00,weatherlink.com 1.10,2013-08-29 14:13:00,
2013-08-29 09:28:00,80.8,77.0,29.96,ENE,77,2.0,7.0,88,0.00,,,0.00,weatherlink.com 1.10,2013-08-29 14:28:00,
2013-08-29 09:43:00,81.7,78.0,29.96,SE,146,2.0,5.0,87,0.00,,,0.00,weatherlink.com 1.10,2013-08-29 14:43:00,
2013-08-29 09:58:00,82.4,78.0,29.96,ENE,78,4.0,8.0,85,0.00,,,0.00,weatherlink.com 1.10,2013-08-29 14:58:00,
2013-08-29 10:13:00,82.8,77.0,29.95,SSE,154,3.0,6.0,83,0.00,,,0.00,weatherlink.com 1.10,2013-08-29 15:13:00,
2013-08-29 10:28:00,83.4,78.0,29.95,SSW,205,1.0,4.0,83,0.00,,,0.00,weatherlink.com 1.10,2013-08-29 15:28:00,
2013-08-29 10:43:00,83.9,78.0,29.95,SE,141,1.0,6.0,82,0.00,,,0.00,weatherlink.com 1.10,2013-08-29 15:43:00,
2013-08-29 10:58:00,85.3,78.0,29.95,ESE,108,2.0,7.0,79,0.00,,,0.00,weatherlink.com 1.10,2013-08-29 15:58:00,
2013-08-29 11:13:00,85.1,78.0,29.95,ESE,117,3.0,6.0,80,0.00,,,0.00,weatherlink.com 1.10,2013-08-29 16:13:00,
2013-08-29 11:28:00,86.1,78.0,29.95,South,189,3.0,7.0,77,0.00,,,0.00,weatherlink.com 1.10,2013-08-29 16:28:00,
2013-08-29 11:43:00,86.4,79.0,29.94,SSE,150,2.0,5.0,78,0.00,,,0.00,weatherlink.com 1.10,2013-08-29 16:43:00,
2013-08-29 11:58:00,86.1,79.0,29.95,ESE,120,2.0,6.0,78,0.00,,,0.00,weatherlink.com 1.10,2013-08-29 16:58:00,
2013-08-29 12:13:00,86.9,79.0,29.94,East,99,2.0,5.0,76,0.00,,,0.00,weatherlink.com 1.10,2013-08-29 17:13:00,
2013-08-29 12:28:00,87.1,79.0,29.94,SW,222,2.0,9.0,76,0.00,,,0.00,weatherlink.com 1.10,2013-08-29 17:28:00,
2013-08-29 12:43:00,87.9,79.0,29.93,SSW,197,5.0,6.0,75,0.00,,,0.00,weatherlink.com 1.10,2013-08-29 17:43:00,
2013-08-29 12:58:00,89.3,79.0,29.93,ENE,71,1.0,10.0,72,0.00,,,0.00,weatherlink.com 1.10,2013-08-29 17:58:00,
2013-08-29 13:13:00,90.3,79.0,29.93,ESE,105,1.0,9.0,69,0.00,,,0.00,weatherlink.com 1.10,2013-08-29 18:13:00,
2013-08-29 13:28:00,90.3,79.0,29.92,ESE,114,2.0,7.0,69,0.00,,,0.00,weatherlink.com 1.10,2013-08-29 18:28:00,
2013-08-29 13:43:00,90.5,79.0,29.92,SW,228,2.0,6.0,69,0.00,,,0.00,weatherlink.com 1.10,2013-08-29 18:43:00,
2013-08-29 13:59:00,91.3,79.0,29.91,South,169,1.0,7.0,67,0.00,,,0.00,weatherlink.com 1.10,2013-08-29 18:59:00,
2013-08-29 14:14:00,92.0,77.0,29.91,South,174,3.0,5.0,62,0.00,,,0.00,weatherlink.com 1.10,2013-08-29 19:14:00,
2013-08-29 14:29:00,91.9,77.0,29.89,SE,141,2.0,10.0,61,0.00,,,0.00,weatherlink.com 1.10,2013-08-29 19:29:00,
2013-08-29 14:44:00,91.3,76.0,29.88,SE,144,3.0,6.0,61,0.00,,,0.00,weatherlink.com 1.10,2013-08-29 19:44:00,
2013-08-29 14:59:00,90.5,77.0,29.88,SSW,203,2.0,9.0,64,0.00,,,0.00,weatherlink.com 1.10,2013-08-29 19:59:00,
2013-08-29 15:14:00,89.6,76.0,29.86,SE,130,1.0,7.0,65,0.00,,,0.00,weatherlink.com 1.10,2013-08-29 20:14:00,
2013-08-29 15:29:00,89.6,73.0,29.86,SE,141,3.0,8.0,58,0.00,,,0.00,weatherlink.com 1.10,2013-08-29 20:29:00,
2013-08-29 15:44:00,89.8,72.0,29.85,SE,138,1.0,5.0,55,0.00,,,0.00,weatherlink.com 1.10,2013-08-29 20:44:00,
2013-08-29 15:59:00,89.7,71.0,29.86,SSW,203,2.0,5.0,55,0.00,,,0.00,weatherlink.com 1.10,2013-08-29 20:59:00,
2013-08-29 16:14:00,89.5,71.0,29.86,South,188,2.0,8.0,55,0.00,,,0.00,weatherlink.com 1.10,2013-08-29 21:14:00,
2013-08-29 16:29:00,91.0,72.0,29.86,SSE,149,1.0,10.0,53,0.00,,,0.00,weatherlink.com 1.10,2013-08-29 21:29:00,
2013-08-29 16:44:00,91.7,72.0,29.86,SSW,208,2.0,10.0,53,0.00,,,0.00,weatherlink.com 1.10,2013-08-29 21:44:00,
2013-08-29 16:59:00,91.4,73.0,29.86,SW,218,2.0,9.0,55,0.00,,,0.00,weatherlink.com 1.10,2013-08-29 21:59:00,
2013-08-29 17:15:00,90.9,74.0,29.87,SE,132,0.0,11.0,57,0.00,,,0.00,weatherlink.com 1.10,2013-08-29 22:15:00,
2013-08-29 17:29:00,91.1,74.0,29.87,SSW,208,1.0,10.0,57,0.00,,,0.00,weatherlink.com 1.10,2013-08-29 22:29:00,
2013-08-29 17:44:00,91.2,74.0,29.87,SW,233,0.0,7.0,57,0.00,,,0.00,weatherlink.com 1.10,2013-08-29 22:44:00,
2013-08-29 17:59:00,91.0,75.0,29.87,South,183,2.0,8.0,59,0.00,,,0.00,weatherlink.com 1.10,2013-08-29 22:59:00,
2013-08-29 18:14:00,90.3,74.0,29.86,SW,228,4.0,8.0,59,0.00,,,0.00,weatherlink.com 1.10,2013-08-29 23:14:00,
2013-08-29 18:29:00,89.7,74.0,29.86,SW,221,2.0,5.0,61,0.00,,,0.00,weatherlink.com 1.10,2013-08-29 23:29:00,
2013-08-29 18:44:00,89.2,75.0,29.85,SW,215,2.0,5.0,63,0.00,,,0.00,weatherlink.com 1.10,2013-08-29 23:44:00,
2013-08-29 18:59:00,88.8,75.0,29.85,SE,136,1.0,6.0,64,0.00,,,0.00,weatherlink.com 1.10,2013-08-29 23:59:00,
2013-08-29 19:14:00,88.0,74.0,29.84,SSW,193,0.0,4.0,64,0.00,,,0.00,weatherlink.com 1.10,2013-08-30 00:14:00,
2013-08-29 19:29:00,86.9,75.0,29.83,ESE,120,1.0,3.0,67,0.00,,,0.00,weatherlink.com 1.10,2013-08-30 00:29:00,
2013-08-29 19:44:00,86.0,75.0,29.84,SSW,208,2.0,3.0,69,0.00,,,0.00,weatherlink.com 1.10,2013-08-30 00:44:00,
2013-08-29 19:59:00,84.9,75.0,29.84,SE,129,0.0,1.0,72,0.00,,,0.00,weatherlink.com 1.10,2013-08-30 00:59:00,
2013-08-29 20:14:00,83.9,75.0,29.84,SSW,204,0.0,0.0,74,0.00,,,0.00,weatherlink.com 1.10,2013-08-30 01:14:00,
2013-08-29 20:29:00,82.9,75.0,29.84,SSW,198,0.0,0.0,76,0.00,,,0.00,weatherlink.com 1.10,2013-08-30 01:29:00,
2013-08-29 20:44:00,81.8,74.0,29.85,SSW,198,0.0,0.0,77,0.00,,,0.00,weatherlink.com 1.10,2013-08-30 01:44:00,
2013-08-29 20:59:00,81.3,74.0,29.85,SSW,198,0.0,0.0,78,0.00,,,0.00,weatherlink.com 1.10,2013-08-30 01:59:00,
2013-08-29 21:14:00,80.9,73.0,29.85,SSW,198,0.0,0.0,78,0.00,,,0.00,weatherlink.com 1.10,2013-08-30 02:14:00,
2013-08-29 21:29:00,80.2,74.0,29.85,SSW,198,0.0,0.0,80,0.00,,,0.00,weatherlink.com 1.10,2013-08-30 02:29:00,
2013-08-29 21:44:00,79.5,74.0,29.85,SSW,198,0.0,0.0,82,0.00,,,0.00,weatherlink.com 1.10,2013-08-30 02:44:00,
2013-08-29 21:59:00,79.4,74.0,29.85,SSW,198,0.0,0.0,82,0.00,,,0.00,weatherlink.com 1.10,2013-08-30 02:59:00,
2013-08-29 22:14:00,79.1,74.0,29.85,SSW,198,0.0,0.0,83,0.00,,,0.00,weatherlink.com 1.10,2013-08-30 03:14:00,
2013-08-29 22:29:00,78.9,73.0,29.84,SE,129,0.0,0.0,83,0.00,,,0.00,weatherlink.com 1.10,2013-08-30 03:29:00,
2013-08-29 22:44:00,79.2,73.0,29.84,SE,128,0.0,0.0,82,0.00,,,0.00,weatherlink.com 1.10,2013-08-30 03:44:00,
2013-08-29 22:59:00,79.2,73.0,29.83,SW,214,0.0,0.0,81,0.00,,,0.00,weatherlink.com 1.10,2013-08-30 03:59:00,
2013-08-29 23:14:00,79.3,73.0,29.83,East,100,0.0,0.0,80,0.00,,,0.00,weatherlink.com 1.10,2013-08-30 04:14:00,
2013-08-29 23:29:00,79.8,73.0,29.83,East,101,0.0,4.0,79,0.00,,,0.00,weatherlink.com 1.10,2013-08-30 04:29:00,
2013-08-29 23:44:00,80.2,72.0,29.83,SSW,210,0.0,3.0,77,0.00,,,0.00,weatherlink.com 1.10,2013-08-30 04:44:00,
2013-08-29 23:59:00,80.6,72.0,29.82,SSE,154,2.0,4.0,76,0.00,,,0.00,weatherlink.com 1.10,2013-08-30 04:59:00,